Time;durP1;ratioP1;P1;durP2;ratioP2;P2;SDS_P1;SDS_P2;PMS_P1;PMS_P2;Temp;Humidity;BMP_temperature;BMP_pressure;BME280_temperature;BME280_humidity;BME280_pressure;Samples;Min_cycle;Max_cycle;Signal;HPM_P1;HPM_P2
2023/02/18 00:00:37;;;;;;;3.10;0.60;;;;;;;8.59;77.17;100765.50;5029873;28;20056;-74
2023/02/18 00:03:02;;;;;;;2.70;0.82;;;;;;;8.45;78.76;100764.56;5025861;28;20136;-74
2023/02/18 00:05:28;;;;;;;3.60;0.90;;;;;;;8.44;80.05;100823.31;5019614;28;20041;-75
2023/02/18 00:07:54;;;;;;;3.63;0.90;;;;;;;8.42;80.54;100761.91;5025305;28;20084;-75
2023/02/18 00:10:19;;;;;;;3.53;0.77;;;;;;;8.40;81.07;100768.91;5022145;28;20505;-74
2023/02/18 00:12:44;;;;;;;5.30;1.08;;;;;;;8.37;80.47;100787.25;5024305;28;20484;-74
2023/02/18 00:15:10;;;;;;;5.03;1.00;;;;;;;8.39;80.13;100767.13;5025377;28;20042;-75
2023/02/18 00:17:35;;;;;;;6.00;1.10;;;;;;;8.32;80.26;100758.31;5025911;28;20045;-74
2023/02/18 00:20:00;;;;;;;6.70;1.00;;;;;;;8.24;81.20;100779.28;5023959;28;20044;-75
2023/02/18 00:22:26;;;;;;;5.78;0.73;;;;;;;8.13;83.02;100781.84;5025448;28;20049;-75
2023/02/18 00:24:51;;;;;;;4.40;0.85;;;;;;;8.11;84.25;100775.69;5023891;28;20076;-74
2023/02/18 00:27:17;;;;;;;4.78;0.55;;;;;;;8.02;86.48;100774.75;5024534;28;20057;-74
2023/02/18 00:29:43;;;;;;;5.20;0.80;;;;;;;7.96;89.01;100777.31;5025461;28;20480;-75
2023/02/18 00:32:08;;;;;;;3.38;0.93;;;;;;;7.98;90.64;100780.81;5023629;28;20391;-74
2023/02/18 00:34:34;;;;;;;5.50;1.42;;;;;;;7.86;91.46;100779.00;5025603;28;20087;-75
2023/02/18 00:37:02;;;;;;;5.03;0.90;;;;;;;7.74;90.48;100787.63;5008975;28;20033;-74
2023/02/18 00:39:27;;;;;;;3.65;0.70;;;;;;;7.75;84.47;100784.13;5022303;28;20029;-74
2023/02/18 00:41:53;;;;;;;5.35;0.88;;;;;;;7.84;80.61;100788.59;5004629;28;20034;-75
2023/02/18 00:44:18;;;;;;;7.00;0.82;;;;;;;7.83;79.69;100782.47;5026210;28;20087;-74
2023/02/18 00:46:46;;;;;;;6.28;0.90;;;;;;;7.89;77.78;100793.03;5021778;28;20128;-74
2023/02/18 00:49:12;;;;;;;4.40;0.50;;;;;;;7.80;79.51;100798.19;4998850;28;20045;-74
2023/02/18 00:51:37;;;;;;;4.03;0.55;;;;;;;7.77;80.77;100781.53;5004354;28;20037;-74
2023/02/18 00:54:03;;;;;;;2.65;0.50;;;;;;;7.72;81.73;100784.09;5013629;28;20117;-74
2023/02/18 00:56:30;;;;;;;5.65;0.60;;;;;;;7.68;82.07;100792.84;5003588;28;20026;-74
2023/02/18 00:58:55;;;;;;;4.75;0.60;;;;;;;7.69;81.85;100805.97;5025074;28;20171;-74
2023/02/18 01:01:20;;;;;;;4.97;0.70;;;;;;;7.74;80.66;100798.13;5022927;28;20042;-75
2023/02/18 01:03:46;;;;;;;6.63;0.90;;;;;;;7.83;77.27;100803.50;5024660;28;20044;-74
2023/02/18 01:06:12;;;;;;;4.95;0.70;;;;;;;7.85;77.84;100785.09;5002595;28;20116;-74
2023/02/18 01:08:39;;;;;;;3.53;0.82;;;;;;;7.81;76.81;100793.84;5023888;28;20120;-74
2023/02/18 01:11:06;;;;;;;4.32;1.38;;;;;;;7.70;77.48;100783.19;5023336;28;20072;-75
2023/02/18 01:13:31;;;;;;;1.90;0.43;;;;;;;7.71;77.37;100797.25;5023630;28;20032;-75
2023/02/18 01:15:58;;;;;;;6.43;1.08;;;;;;;7.60;78.29;100790.13;5005668;28;20034;-75
2023/02/18 01:18:25;;;;;;;3.97;1.17;;;;;;;7.54;78.84;100805.81;5005713;28;20029;-75
2023/02/18 01:20:50;;;;;;;3.85;0.80;;;;;;;7.51;79.41;100794.41;5003685;28;20037;-74
2023/02/18 01:23:17;;;;;;;4.07;0.70;;;;;;;7.44;79.71;100810.09;5006575;28;20049;-74
2023/02/18 01:25:43;;;;;;;4.03;0.60;;;;;;;7.37;80.02;100795.13;5021906;28;20042;-74
2023/02/18 01:28:10;;;;;;;3.80;0.60;;;;;;;7.35;79.83;100788.97;5022069;28;20120;-74
2023/02/18 01:30:36;;;;;;;2.50;0.38;;;;;;;7.28;79.60;100792.38;5004288;28;20084;-74
2023/02/18 01:33:03;;;;;;;4.07;1.08;;;;;;;7.28;78.97;100791.50;5007426;28;20117;-74
2023/02/18 01:35:29;;;;;;;3.83;0.68;;;;;;;7.27;78.50;100800.25;5003269;28;20038;-75
2023/02/18 01:37:54;;;;;;;2.67;0.50;;;;;;;7.25;78.60;100802.84;5021473;28;20037;-74
2023/02/18 01:40:23;;;;;;;3.85;1.20;;;;;;;7.20;78.38;100805.44;5022342;28;20041;-74
2023/02/18 01:42:49;;;;;;;4.20;0.57;;;;;;;7.19;77.85;100800.16;5024811;28;20044;-74
2023/02/18 01:45:34;;;;;;;3.60;0.50;;;;;;;7.17;77.58;100808.00;5001510;28;20469;-76
2023/02/18 01:48:08;;;;;;;1.75;0.45;;;;;;;7.19;77.66;100808.03;5023058;28;20599;-74
2023/02/18 01:50:36;;;;;;;3.70;0.63;;;;;;;7.19;77.21;100805.41;5016050;28;20038;-75
2023/02/18 01:53:02;;;;;;;6.22;0.82;;;;;;;7.21;76.46;100803.69;5008951;28;20032;-74
2023/02/18 01:55:30;;;;;;;4.38;0.70;;;;;;;7.16;76.84;100798.38;5004406;28;20443;-74
2023/02/18 01:57:55;;;;;;;4.65;0.52;;;;;;;7.06;77.18;100806.13;5023037;28;20086;-75
2023/02/18 02:00:21;;;;;;;4.78;0.70;;;;;;;7.10;76.98;100802.66;5005062;28;20030;-74
2023/02/18 02:02:50;;;;;;;5.88;0.73;;;;;;;7.08;77.42;100812.28;5022802;28;20041;-74
2023/02/18 02:05:16;;;;;;;5.13;0.82;;;;;;;7.07;77.16;100815.75;5023275;28;20033;-75
2023/02/18 02:07:43;;;;;;;5.25;0.60;;;;;;;6.98;77.73;100820.03;5013538;28;20068;-75
2023/02/18 02:10:10;;;;;;;4.63;0.73;;;;;;;6.95;77.66;100820.00;5016507;28;20037;-74
2023/02/18 02:12:57;;;;;;;3.65;0.63;;;;;;;6.98;77.13;100834.91;5023937;28;20030;-74
2023/02/18 02:15:31;;;;;;;2.70;0.60;;;;;;;7.07;77.07;100819.25;5004231;28;20098;-75
2023/02/18 02:18:48;;;;;;;3.60;0.57;;;;;;;7.02;76.95;100820.94;5003038;28;20432;-74
2023/02/18 02:21:45;;;;;;;3.80;0.57;;;;;;;7.11;76.23;100813.19;4979275;28;20458;-74
2023/02/18 02:24:39;;;;;;;5.97;0.82;;;;;;;7.02;76.82;100836.69;5021454;28;20132;-74
2023/02/18 02:27:16;;;;;;;2.17;0.30;;;;;;;7.13;76.15;100818.47;5005177;28;20030;-74
2023/02/18 02:30:15;;;;;;;3.00;0.60;;;;;;;7.10;75.52;100835.06;5018348;28;20030;-74
2023/02/18 02:32:50;;;;;;;6.47;0.98;;;;;;;7.09;74.84;100835.91;5019925;28;20061;-74
2023/02/18 02:35:22;;;;;;;6.05;0.40;;;;;;;7.15;75.57;100821.97;5003424;28;20076;-75
2023/02/18 02:38:03;;;;;;;2.17;0.50;;;;;;;7.14;75.62;100818.47;5016924;28;20036;-74
2023/02/18 02:40:58;;;;;;;4.93;0.50;;;;;;;7.13;75.12;100813.22;5001165;28;20053;-75
2023/02/18 02:43:55;;;;;;;4.75;0.65;;;;;;;7.15;75.00;100829.84;4987985;28;20056;-74
2023/02/18 02:46:28;;;;;;;3.53;0.70;;;;;;;7.18;75.12;100816.78;4985720;28;20065;-74
2023/02/18 02:49:11;;;;;;;6.35;0.80;;;;;;;7.22;74.71;100808.06;5016223;28;20037;-74
2023/02/18 02:51:46;;;;;;;3.75;0.55;;;;;;;7.24;74.90;100817.72;5011307;28;20457;-75
2023/02/18 02:54:17;;;;;;;4.63;0.55;;;;;;;7.18;75.06;100816.78;5014239;28;20501;-74
2023/02/18 02:56:42;;;;;;;2.70;0.45;;;;;;;7.21;75.04;100808.94;5022002;28;20033;-74
2023/02/18 02:59:15;;;;;;;1.48;0.40;;;;;;;7.26;74.86;100809.88;5003017;28;20703;-74
2023/02/18 03:02:07;;;;;;;2.30;0.70;;;;;;;7.22;74.99;100811.56;5003939;28;20408;-74
2023/02/18 03:04:53;;;;;;;5.18;1.05;;;;;;;7.22;74.95;100818.56;4994231;28;20038;-74
2023/02/18 03:07:35;;;;;;;3.30;0.80;;;;;;;7.34;74.40;100802.09;5016584;28;20045;-73
2023/02/18 03:10:34;;;;;;;1.83;0.33;;;;;;;7.34;74.57;100802.09;4999885;28;20048;-74
2023/02/18 03:13:12;;;;;;;4.30;0.95;;;;;;;7.40;73.86;100800.41;5023008;28;20272;-74
2023/02/18 03:15:55;;;;;;;1.95;0.63;;;;;;;7.47;73.12;100804.00;5001743;28;20732;-74
2023/02/18 03:18:42;;;;;;;4.57;1.07;;;;;;;7.48;72.72;100811.00;5005096;28;20029;-74
2023/02/18 03:21:12;;;;;;;7.57;0.73;;;;;;;7.51;73.09;100790.00;5002525;28;20080;-75
2023/02/18 03:23:45;;;;;;;2.25;0.30;;;;;;;7.51;72.48;100802.28;5023624;28;20519;-74
2023/02/18 03:26:15;;;;;;;4.43;0.57;;;;;;;7.51;72.28;100795.28;4983405;28;20034;-75
2023/02/18 03:28:42;;;;;;;2.38;0.40;;;;;;;7.50;72.12;100804.03;5003851;28;20499;-74
2023/02/18 03:31:15;;;;;;;2.72;0.30;;;;;;;7.51;71.57;100799.66;5003655;28;20492;-75
2023/02/18 03:33:54;;;;;;;4.10;0.65;;;;;;;7.51;71.11;100794.41;5002473;28;20030;-74
2023/02/18 03:36:21;;;;;;;3.22;0.47;;;;;;;7.50;72.48;100788.28;5014843;28;20038;-74
2023/02/18 03:38:57;;;;;;;2.90;0.60;;;;;;;7.56;71.26;100782.19;5020351;28;20479;-73
2023/02/18 03:41:23;;;;;;;4.38;0.93;;;;;;;7.53;71.64;100776.91;5022152;28;20377;-74
2023/02/18 03:43:51;;;;;;;4.22;0.47;;;;;;;7.59;72.11;100776.97;5002251;28;20041;-74
2023/02/18 03:46:17;;;;;;;2.08;0.50;;;;;;;7.63;72.55;100784.03;5001744;28;20121;-74
2023/02/18 03:48:43;;;;;;;3.25;0.50;;;;;;;7.61;72.89;100783.13;5005208;28;20089;-73
2023/02/18 03:51:08;;;;;;;1.70;0.38;;;;;;;7.63;73.24;100784.91;5000135;28;20503;-74
2023/02/18 03:53:34;;;;;;;3.80;0.65;;;;;;;7.64;73.50;100796.28;5001554;28;20034;-74
2023/02/18 03:55:59;;;;;;;1.33;0.40;;;;;;;7.64;75.03;100786.66;5022453;28;20029;-74
2023/02/18 03:58:24;;;;;;;1.85;0.40;;;;;;;7.76;74.74;100777.16;5018997;28;20451;-74
2023/02/18 04:00:50;;;;;;;4.80;1.13;;;;;;;7.74;74.98;100782.38;5022771;28;20037;-74
2023/02/18 04:03:15;;;;;;;4.88;0.60;;;;;;;7.78;75.97;100778.00;5014324;28;20715;-74
2023/02/18 04:05:40;;;;;;;2.58;0.60;;;;;;;7.84;75.62;100789.47;5022040;28;20459;-75
2023/02/18 04:08:06;;;;;;;6.75;1.02;;;;;;;7.87;75.39;100784.25;5019933;28;20519;-74
2023/02/18 04:10:31;;;;;;;3.20;0.63;;;;;;;7.92;75.50;100776.41;5018797;28;20404;-74
2023/02/18 04:12:56;;;;;;;2.08;0.50;;;;;;;7.98;75.22;100789.59;5019323;28;20053;-74
2023/02/18 04:15:21;;;;;;;4.40;0.90;;;;;;;8.03;75.09;100758.97;5021545;28;20117;-74
2023/02/18 04:17:47;;;;;;;4.28;0.60;;;;;;;8.12;75.51;100774.81;5018845;28;20065;-75
2023/02/18 04:20:12;;;;;;;3.03;0.47;;;;;;;8.17;76.12;100782.72;5022121;28;20045;-74
2023/02/18 04:22:37;;;;;;;5.22;0.63;;;;;;;8.14;76.12;100780.06;5019435;28;20042;-74
2023/02/18 04:25:03;;;;;;;5.07;0.90;;;;;;;8.16;77.61;100778.34;5022058;28;20091;-74
2023/02/18 04:27:28;;;;;;;4.25;0.85;;;;;;;8.18;78.02;100778.38;5018969;28;20056;-74
2023/02/18 04:29:54;;;;;;;4.30;1.25;;;;;;;8.16;78.41;100762.56;5021677;28;20071;-74
2023/02/18 04:32:19;;;;;;;4.75;0.75;;;;;;;8.18;77.95;100774.00;5018953;28;20044;-75
2023/02/18 04:34:44;;;;;;;6.78;1.00;;;;;;;8.23;78.79;100782.78;5019978;28;20049;-74
2023/02/18 04:37:09;;;;;;;5.57;1.58;;;;;;;8.29;77.23;100788.09;5021129;28;20029;-74
2023/02/18 04:39:35;;;;;;;6.78;1.35;;;;;;;8.29;78.73;100769.69;5022240;28;20143;-74
2023/02/18 04:42:00;;;;;;;4.75;0.93;;;;;;;8.30;78.54;100781.94;5027497;28;20043;-74
2023/02/18 04:44:26;;;;;;;6.25;0.70;;;;;;;8.31;78.11;100785.47;5022780;28;20043;-74
2023/02/18 04:46:51;;;;;;;5.43;0.70;;;;;;;8.37;79.15;100771.50;5023096;28;20029;-74
2023/02/18 04:49:16;;;;;;;6.25;1.17;;;;;;;8.43;78.93;100771.56;5024794;28;20694;-74
2023/02/18 04:51:42;;;;;;;6.13;1.25;;;;;;;8.40;80.27;100764.53;5023449;28;20049;-74
2023/02/18 04:54:07;;;;;;;6.05;0.90;;;;;;;8.36;80.95;100773.25;5024501;28;20044;-74
2023/02/18 04:56:32;;;;;;;2.83;0.45;;;;;;;8.33;81.78;100767.94;5016019;28;20045;-74
2023/02/18 04:58:58;;;;;;;6.90;1.05;;;;;;;8.34;81.84;100775.84;5024234;28;20033;-74
2023/02/18 05:01:23;;;;;;;3.92;0.70;;;;;;;8.39;81.88;100767.13;5022457;28;20565;-74
2023/02/18 05:03:48;;;;;;;11.00;1.35;;;;;;;8.35;81.34;100772.34;5023919;28;20025;-74
2023/02/18 05:06:14;;;;;;;6.38;1.10;;;;;;;8.38;81.31;100775.88;5022659;28;20392;-74
2023/02/18 05:08:39;;;;;;;8.18;0.85;;;;;;;8.37;80.62;100780.25;5023860;28;20440;-74
2023/02/18 05:11:06;;;;;;;3.45;0.68;;;;;;;8.45;80.52;100778.59;5023092;28;20140;-74
2023/02/18 05:13:32;;;;;;;10.25;1.30;;;;;;;8.47;79.72;100786.50;5024107;28;20021;-74
2023/02/18 05:15:57;;;;;;;4.13;0.70;;;;;;;8.52;79.00;100788.28;5022758;28;20577;-74
2023/02/18 05:18:22;;;;;;;6.28;0.80;;;;;;;8.56;78.38;100781.28;5024661;28;20503;-74
2023/02/18 05:20:47;;;;;;;3.35;0.63;;;;;;;8.60;78.11;100782.19;5021257;28;20034;-74
2023/02/18 05:23:13;;;;;;;7.40;0.80;;;;;;;8.59;77.49;100778.66;5021693;28;20056;-74
2023/02/18 05:25:38;;;;;;;5.05;1.05;;;;;;;8.56;77.92;100783.91;5005806;28;20047;-75
2023/02/18 05:28:04;;;;;;;5.53;0.70;;;;;;;8.60;76.93;100788.34;5023383;28;20052;-74
2023/02/18 05:30:29;;;;;;;5.63;0.60;;;;;;;8.59;76.71;100773.41;5022398;28;20045;-74
2023/02/18 05:32:54;;;;;;;10.70;1.08;;;;;;;8.61;76.88;100770.78;5024558;28;20084;-74
2023/02/18 05:35:20;;;;;;;4.55;0.57;;;;;;;8.61;77.97;100773.41;5025104;28;20041;-74
2023/02/18 05:37:45;;;;;;;2.97;0.57;;;;;;;8.58;77.91;100758.50;5021247;28;20037;-74
2023/02/18 05:40:11;;;;;;;7.38;1.45;;;;;;;8.53;78.96;100776.88;5021083;28;20041;-74
2023/02/18 05:42:36;;;;;;;10.10;1.67;;;;;;;8.58;79.46;100762.88;5023099;28;20045;-74
2023/02/18 05:45:02;;;;;;;10.90;1.20;;;;;;;8.61;80.15;100768.16;5024633;28;20041;-75
2023/02/18 05:47:27;;;;;;;5.22;1.27;;;;;;;8.55;81.29;100758.47;5024227;28;20037;-74
2023/02/18 05:49:54;;;;;;;7.57;2.00;;;;;;;8.53;82.78;100761.09;5003917;28;20396;-75
2023/02/18 05:52:20;;;;;;;7.88;1.63;;;;;;;8.54;82.58;100756.69;5019783;28;20506;-74
2023/02/18 05:54:46;;;;;;;7.72;1.58;;;;;;;8.57;82.81;100762.00;5042398;22;20057;-77
2023/02/18 05:57:13;;;;;;;4.45;0.82;;;;;;;8.61;83.22;100750.63;5036955;28;20045;-77
2023/02/18 05:59:38;;;;;;;3.40;1.02;;;;;;;8.62;83.42;100760.28;5026367;28;20061;-77
2023/02/18 06:02:04;;;;;;;4.43;0.55;;;;;;;8.62;83.99;100760.28;5042485;28;20049;-77
2023/02/18 06:04:29;;;;;;;6.28;1.00;;;;;;;8.57;85.34;100751.50;5047185;28;20514;-77
2023/02/18 06:06:54;;;;;;;4.20;0.90;;;;;;;8.62;84.98;100748.84;5064104;28;20028;-77
2023/02/18 06:09:20;;;;;;;5.80;0.60;;;;;;;8.62;86.12;100760.28;5059226;28;20098;-77
2023/02/18 06:11:45;;;;;;;3.33;0.70;;;;;;;8.65;86.73;100755.03;5047469;28;20036;-77
2023/02/18 06:14:11;;;;;;;3.42;0.65;;;;;;;8.61;87.32;100757.63;5063327;28;20048;-77
2023/02/18 06:16:36;;;;;;;6.68;0.73;;;;;;;8.57;88.06;100759.38;5064374;28;20031;-77
2023/02/18 06:19:02;;;;;;;8.82;1.08;;;;;;;8.60;87.99;100750.63;5062003;28;20059;-77
2023/02/18 06:21:27;;;;;;;2.92;1.13;;;;;;;8.61;88.55;100757.63;5064016;28;20399;-77
2023/02/18 06:23:53;;;;;;;5.30;1.45;;;;;;;8.60;89.48;100762.03;5062933;28;20372;-77
2023/02/18 06:26:18;;;;;;;6.38;0.95;;;;;;;8.47;93.03;100765.44;5065117;28;20052;-77
2023/02/18 06:28:43;;;;;;;5.50;1.42;;;;;;;8.28;96.85;100760.03;5066312;28;20045;-77
2023/02/18 06:31:08;;;;;;;6.93;2.50;;;;;;;8.11;99.53;100757.28;5039931;28;20036;-78
2023/02/18 06:33:34;;;;;;;7.72;1.30;;;;;;;8.01;99.80;100757.19;5065442;28;20032;-77
2023/02/18 06:36:10;;;;;;;5.68;1.40;;;;;;;7.87;100.00;100734.31;5064571;28;20041;-77
2023/02/18 06:38:37;;;;;;;5.90;1.75;;;;;;;7.77;100.00;100742.97;5064927;28;20040;-78
2023/02/18 06:41:02;;;;;;;5.95;1.20;;;;;;;7.76;100.00;100743.88;5064195;28;20500;-77
2023/02/18 06:43:28;;;;;;;8.18;1.20;;;;;;;7.73;100.00;100749.09;5065443;28;20037;-77
2023/02/18 06:45:53;;;;;;;6.18;1.42;;;;;;;7.63;100.00;100749.88;5068450;28;20040;-77
2023/02/18 06:48:19;;;;;;;10.23;1.92;;;;;;;7.54;100.00;100748.03;5068398;28;20036;-78
2023/02/18 06:50:44;;;;;;;7.88;1.85;;;;;;;7.43;100.00;100742.66;5062798;28;20037;-78
2023/02/18 06:53:11;;;;;;;8.27;1.60;;;;;;;7.36;100.00;100735.63;5064271;28;20021;-77
2023/02/18 06:55:37;;;;;;;6.03;1.77;;;;;;;7.25;100.00;100731.97;5073070;28;20036;-79
2023/02/18 06:58:02;;;;;;;6.25;1.63;;;;;;;7.22;100.00;100731.94;5069201;28;20078;-79
2023/02/18 07:00:28;;;;;;;9.77;3.00;;;;;;;7.17;100.00;100733.63;5069847;28;20021;-79
2023/02/18 07:02:53;;;;;;;7.03;2.08;;;;;;;7.13;100.00;100727.50;5052327;28;20040;-79
2023/02/18 07:05:18;;;;;;;7.05;1.58;;;;;;;7.11;100.00;100730.97;5063545;28;20053;-78
2023/02/18 07:07:43;;;;;;;8.38;2.20;;;;;;;7.04;100.00;100730.00;5066150;28;20069;-78
2023/02/18 07:10:09;;;;;;;9.20;2.60;;;;;;;7.05;100.00;100717.75;5042021;28;20044;-78
2023/02/18 07:12:35;;;;;;;12.25;3.28;;;;;;;7.14;100.00;100725.75;5065109;28;20033;-78
2023/02/18 07:15:00;;;;;;;11.32;3.17;;;;;;;7.16;100.00;100718.78;5056611;28;20041;-78
2023/02/18 07:17:26;;;;;;;14.75;3.17;;;;;;;7.19;100.00;100711.78;5064441;28;20032;-78
2023/02/18 07:19:52;;;;;;;18.67;3.85;;;;;;;7.21;100.00;100709.19;5066563;28;20491;-78
2023/02/18 07:22:17;;;;;;;10.07;3.40;;;;;;;7.25;100.00;100697.84;5063720;28;20078;-78
2023/02/18 07:24:42;;;;;;;9.98;3.30;;;;;;;7.31;100.00;100692.69;5065403;28;20045;-78
2023/02/18 07:27:08;;;;;;;10.23;3.00;;;;;;;7.33;100.00;100695.31;5061608;28;20118;-78
2023/02/18 07:29:33;;;;;;;11.70;3.45;;;;;;;7.38;100.00;100698.84;5060404;28;20448;-78
2023/02/18 07:31:58;;;;;;;11.48;2.75;;;;;;;7.35;100.00;100693.56;5054250;28;20571;-78
2023/02/18 07:34:24;;;;;;;9.57;2.80;;;;;;;7.32;100.00;100691.81;5060107;28;20037;-78
2023/02/18 07:36:49;;;;;;;7.07;2.42;;;;;;;7.35;100.00;100688.31;5044254;28;20040;-78
2023/02/18 07:39:17;;;;;;;10.35;2.08;;;;;;;7.38;100.00;100683.97;5057738;28;20112;-78
2023/02/18 07:41:42;;;;;;;6.43;2.40;;;;;;;7.37;100.00;100671.72;5049632;28;20033;-79
2023/02/18 07:44:14;;;;;;;11.63;3.85;;;;;;;7.39;100.00;100670.00;5033679;28;20040;-78
2023/02/18 07:46:40;;;;;;;9.90;2.80;;;;;;;7.36;100.00;100659.47;5061250;28;20029;-78
2023/02/18 07:49:05;;;;;;;8.27;3.03;;;;;;;7.41;100.00;100664.75;5057040;28;20033;-78
2023/02/18 07:51:31;;;;;;;9.35;3.40;;;;;;;7.37;100.00;100655.97;5058156;28;20033;-78
2023/02/18 07:53:56;;;;;;;11.25;3.72;;;;;;;7.43;100.00;100666.50;5062289;28;20078;-78
2023/02/18 07:56:21;;;;;;;14.98;3.83;;;;;;;7.41;100.00;100648.97;5047560;28;20036;-78
2023/02/18 07:58:47;;;;;;;7.55;2.85;;;;;;;7.49;100.00;100647.28;5048019;28;20032;-78
2023/02/18 08:01:13;;;;;;;9.27;3.70;;;;;;;7.47;100.00;100651.69;5047798;28;20033;-78
2023/02/18 08:03:39;;;;;;;12.88;3.63;;;;;;;7.54;100.00;100647.34;5061191;28;20060;-78
2023/02/18 08:06:06;;;;;;;11.43;3.38;;;;;;;7.59;100.00;100645.63;5054042;28;20064;-78
2023/02/18 08:08:32;;;;;;;8.52;2.53;;;;;;;7.58;100.00;100646.50;5061769;28;20029;-78
2023/02/18 08:11:05;;;;;;;8.23;2.05;;;;;;;7.62;100.00;100635.16;5058665;28;20506;-78
2023/02/18 08:13:31;;;;;;;10.60;2.53;;;;;;;7.63;100.00;100629.03;5062960;28;20044;-78
2023/02/18 08:15:57;;;;;;;11.15;3.20;;;;;;;7.66;100.00;100619.44;5063603;28;20044;-78
2023/02/18 08:18:24;;;;;;;10.13;2.38;;;;;;;7.65;100.00;100615.06;5062984;28;20513;-78
2023/02/18 08:20:50;;;;;;;10.48;2.78;;;;;;;7.73;100.00;100622.09;5064748;28;20112;-78
2023/02/18 08:23:18;;;;;;;10.48;2.38;;;;;;;7.82;100.00;100606.41;5056638;28;20033;-78
2023/02/18 08:25:46;;;;;;;7.60;3.33;;;;;;;7.94;100.00;100605.56;5059245;28;20112;-78
2023/02/18 08:28:11;;;;;;;8.90;2.75;;;;;;;8.01;100.00;100603.00;5058842;28;20119;-78
2023/02/18 08:30:36;;;;;;;4.30;1.90;;;;;;;8.06;100.00;100606.53;5061337;28;20437;-78
2023/02/18 08:33:02;;;;;;;11.85;2.40;;;;;;;8.15;100.00;100599.56;5062172;28;20036;-78
2023/02/18 08:35:27;;;;;;;11.88;2.53;;;;;;;8.21;100.00;100583.81;5054239;28;20463;-78
2023/02/18 08:37:53;;;;;;;8.68;3.08;;;;;;;8.31;100.00;100578.59;5057986;28;20482;-78
2023/02/18 08:40:18;;;;;;;4.03;1.52;;;;;;;8.35;100.00;100583.00;5053174;28;20044;-78
2023/02/18 08:42:44;;;;;;;7.63;2.05;;;;;;;8.33;100.00;100579.50;5052109;28;20102;-78
2023/02/18 08:45:09;;;;;;;6.95;2.15;;;;;;;8.26;100.00;100571.59;5056791;28;20403;-78
2023/02/18 08:47:34;;;;;;;5.50;1.98;;;;;;;8.33;100.00;100571.63;5063259;28;20051;-78
2023/02/18 08:49:59;;;;;;;6.95;1.88;;;;;;;8.30;100.00;100563.69;5048374;28;20044;-78
2023/02/18 08:52:27;;;;;;;6.78;2.10;;;;;;;8.24;100.00;100563.69;5062720;28;20028;-78
2023/02/18 08:54:52;;;;;;;6.75;2.22;;;;;;;8.25;100.00;100554.03;5059245;28;20040;-78
2023/02/18 08:57:17;;;;;;;6.18;1.92;;;;;;;8.26;100.00;100540.91;5043895;28;20064;-78
2023/02/18 08:59:43;;;;;;;8.27;4.43;;;;;;;8.23;100.00;100540.91;5044126;28;20036;-78
2023/02/18 09:02:14;;;;;;;9.13;2.50;;;;;;;8.14;100.00;100538.22;5041349;28;20116;-78
2023/02/18 09:04:40;;;;;;;10.45;2.00;;;;;;;8.15;100.00;100534.72;5046874;28;20047;-78
2023/02/18 09:07:05;;;;;;;5.68;1.98;;;;;;;8.33;100.00;100531.25;5062527;28;20044;-78
2023/02/18 09:09:31;;;;;;;16.92;7.88;;;;;;;8.33;100.00;100526.91;5057352;28;20044;-78
2023/02/18 09:11:57;;;;;;;10.40;3.90;;;;;;;8.30;100.00;100521.63;5057304;28;20029;-78
2023/02/18 09:14:22;;;;;;;11.40;5.13;;;;;;;8.37;100.00;100517.25;5064312;28;20033;-78
2023/02/18 09:16:49;;;;;;;9.10;4.40;;;;;;;8.47;100.00;100513.81;5058145;28;20369;-78
2023/02/18 09:19:14;;;;;;;9.15;3.47;;;;;;;8.56;100.00;100505.06;5065324;28;20479;-78
2023/02/18 09:21:40;;;;;;;7.70;3.15;;;;;;;8.64;100.00;100503.31;5064162;28;20039;-78
2023/02/18 09:24:05;;;;;;;5.32;2.25;;;;;;;8.75;100.00;100493.69;5062669;28;20123;-78
2023/02/18 09:26:30;;;;;;;8.80;3.15;;;;;;;8.81;100.00;100492.81;5056656;28;20107;-77
2023/02/18 09:28:56;;;;;;;9.20;2.70;;;;;;;8.67;100.00;100495.44;5061435;28;20399;-78
2023/02/18 09:31:24;;;;;;;4.32;1.70;;;;;;;8.79;100.00;100484.03;5051961;28;20029;-77
2023/02/18 09:33:53;;;;;;;9.55;1.92;;;;;;;8.81;100.00;100481.41;5043465;28;20032;-77
2023/02/18 09:36:19;;;;;;;6.55;2.30;;;;;;;8.75;100.00;100475.28;5060726;28;20041;-78
2023/02/18 09:38:45;;;;;;;7.50;2.42;;;;;;;8.87;100.00;100463.84;5056936;28;20487;-77
2023/02/18 09:41:26;;;;;;;5.30;1.67;;;;;;;8.98;100.00;100463.84;5061099;28;20045;-78
2023/02/18 09:43:56;;;;;;;7.45;2.40;;;;;;;9.06;100.00;100456.81;5042059;28;20735;-77
2023/02/18 09:46:32;;;;;;;5.32;1.90;;;;;;;9.06;100.00;100455.94;5061560;28;20510;-78
2023/02/18 09:49:02;;;;;;;4.90;2.00;;;;;;;8.96;100.00;100450.72;5060960;28;20036;-78
2023/02/18 09:51:27;;;;;;;5.00;1.80;;;;;;;9.04;100.00;100448.06;5049276;28;20071;-78
2023/02/18 09:53:53;;;;;;;4.80;1.63;;;;;;;8.98;100.00;100442.78;5050256;28;20028;-78
2023/02/18 09:56:34;;;;;;;5.28;2.08;;;;;;;9.00;100.00;100441.03;5050640;28;20096;-78
2023/02/18 09:59:03;;;;;;;7.22;2.35;;;;;;;9.05;100.00;100431.38;5054618;28;20064;-77
2023/02/18 10:01:34;;;;;;;5.47;1.83;;;;;;;9.14;100.00;100418.22;5049176;28;20507;-77
2023/02/18 10:04:03;;;;;;;5.63;2.30;;;;;;;9.13;100.00;100424.34;5049426;28;20029;-77
2023/02/18 10:06:34;;;;;;;4.50;1.90;;;;;;;9.16;100.00;100413.78;5057667;28;20040;-77
2023/02/18 10:09:03;;;;;;;6.57;3.15;;;;;;;9.20;100.00;100410.28;5052256;28;20043;-78
2023/02/18 10:11:32;;;;;;;6.35;2.45;;;;;;;9.25;100.00;100404.13;5051003;28;20503;-77
2023/02/18 10:14:01;;;;;;;6.43;2.53;;;;;;;9.32;100.00;100395.31;5049966;28;20036;-78
2023/02/18 10:16:27;;;;;;;6.13;2.80;;;;;;;9.32;100.00;100393.56;5050485;28;20050;-78
2023/02/18 10:18:56;;;;;;;5.57;2.33;;;;;;;9.27;100.00;100392.69;5049407;28;20060;-78
2023/02/18 10:21:25;;;;;;;4.78;2.35;;;;;;;9.26;100.00;100382.19;5047893;28;20134;-78
2023/02/18 10:24:01;;;;;;;7.45;2.40;;;;;;;9.31;100.00;100372.53;5048977;28;20025;-78
2023/02/18 10:26:29;;;;;;;6.32;2.78;;;;;;;9.36;100.00;100370.75;5049530;28;20037;-78
2023/02/18 10:28:55;;;;;;;6.05;2.40;;;;;;;9.41;100.00;100371.59;5052242;28;20134;-78
2023/02/18 10:31:43;;;;;;;14.95;3.33;;;;;;;9.46;100.00;100367.19;5049908;28;20152;-78
2023/02/18 10:34:17;;;;;;;7.57;2.75;;;;;;;9.44;100.00;100358.41;5049058;28;20029;-78
2023/02/18 10:36:51;;;;;;;7.88;3.90;;;;;;;9.40;100.00;100346.13;5051702;28;20044;-78
2023/02/18 10:39:55;;;;;;;5.38;2.42;;;;;;;9.52;100.00;100335.53;5053643;28;20029;-78
2023/02/18 10:42:37;;;;;;;6.30;3.03;;;;;;;9.59;100.00;100320.59;5049737;28;20042;-78
2023/02/18 10:45:14;;;;;;;7.80;2.80;;;;;;;9.61;100.00;100316.16;5049163;28;20041;-78
2023/02/18 10:48:13;;;;;;;5.43;2.65;;;;;;;9.76;100.00;100312.56;5050188;28;20032;-78
2023/02/18 10:50:43;;;;;;;5.50;2.85;;;;;;;9.75;100.00;100310.84;5050634;28;20036;-78
2023/02/18 10:53:20;;;;;;;4.75;2.40;;;;;;;9.83;100.00;100304.63;5047695;28;20033;-79
2023/02/18 10:55:48;;;;;;;5.15;2.33;;;;;;;9.84;100.00;100294.94;5047782;28;20491;-78
2023/02/18 10:58:31;;;;;;;5.00;2.20;;;;;;;9.94;100.00;100280.81;5048015;28;20094;-79
2023/02/18 11:00:57;;;;;;;7.38;3.03;;;;;;;9.98;100.00;100272.00;5040862;28;20032;-78
2023/02/18 11:03:38;;;;;;;5.40;2.63;;;;;;;10.09;100.00;100264.00;5042652;28;20039;-78
2023/02/18 11:06:05;;;;;;;4.10;1.90;;;;;;;10.10;100.00;100261.34;5042098;28;20404;-79
2023/02/18 11:08:42;;;;;;;3.75;1.30;;;;;;;10.27;100.00;100241.84;5057614;28;20038;-79
2023/02/18 11:11:24;;;;;;;2.65;0.93;;;;;;;10.39;100.00;100238.25;5025901;28;20120;-78
2023/02/18 11:13:57;;;;;;;2.75;0.93;;;;;;;10.42;100.00;100236.47;5055258;28;20044;-80
2023/02/18 11:16:34;;;;;;;2.35;0.90;;;;;;;10.51;100.00;100231.09;5062372;28;20509;-78
2023/02/18 11:19:03;;;;;;;2.15;0.80;;;;;;;10.57;100.00;100224.00;5065344;28;20468;-78
2023/02/18 11:21:34;;;;;;;2.55;1.00;;;;;;;10.61;100.00;100225.72;5063759;28;20082;-78
2023/02/18 11:24:09;;;;;;;2.05;0.65;;;;;;;10.66;100.00;100223.88;5067028;28;20090;-78
2023/02/18 11:26:37;;;;;;;1.63;0.60;;;;;;;10.70;100.00;100218.56;5060060;28;20075;-78
2023/02/18 11:29:19;;;;;;;1.77;0.70;;;;;;;10.79;100.00;100208.78;5056866;28;20033;-79
2023/02/18 11:31:47;;;;;;;1.50;0.50;;;;;;;10.89;100.00;100206.00;5067424;28;20036;-78
2023/02/18 11:34:17;;;;;;;1.17;0.40;;;;;;;11.06;100.00;100195.25;5054106;28;20033;-79
2023/02/18 11:36:43;;;;;;;1.00;0.43;;;;;;;11.12;100.00;100189.00;5054372;28;20055;-78